sensor_id;sensor_type;location;lat;lon;timestamp;P1;durP1;ratioP1;P2;durP2;ratioP2
13197;SDS011;6664;52.514;13.440;2023-08-24T00:02:20;2.20;;;2.10;;
13197;SDS011;6664;52.514;13.440;2023-08-24T00:05:06;8.93;;;2.67;;
13197;SDS011;6664;52.514;13.440;2023-08-24T00:07:52;3.30;;;2.57;;
13197;SDS011;6664;52.514;13.440;2023-08-24T00:10:37;4.13;;;2.43;;
13197;SDS011;6664;52.514;13.440;2023-08-24T00:13:23;8.60;;;2.70;;
13197;SDS011;6664;52.514;13.440;2023-08-24T00:16:09;4.77;;;3.27;;
13197;SDS011;6664;52.514;13.440;2023-08-24T00:18:56;2.83;;;2.10;;
13197;SDS011;6664;52.514;13.440;2023-08-24T00:21:42;7.93;;;3.10;;
13197;SDS011;6664;52.514;13.440;2023-08-24T00:24:28;5.20;;;2.57;;
13197;SDS011;6664;52.514;13.440;2023-08-24T00:27:14;2.27;;;2.17;;
13197;SDS011;6664;52.514;13.440;2023-08-24T00:30:00;5.57;;;2.40;;
13197;SDS011;6664;52.514;13.440;2023-08-24T00:32:48;5.23;;;2.70;;
13197;SDS011;6664;52.514;13.440;2023-08-24T00:35:35;4.40;;;2.40;;
13197;SDS011;6664;52.514;13.440;2023-08-24T00:38:23;2.93;;;2.63;;
13197;SDS011;6664;52.514;13.440;2023-08-24T00:41:11;2.47;;;2.27;;
13197;SDS011;6664;52.514;13.440;2023-08-24T00:43:57;10.23;;;2.27;;
13197;SDS011;6664;52.514;13.440;2023-08-24T00:46:43;1.97;;;1.80;;
13197;SDS011;6664;52.514;13.440;2023-08-24T00:49:28;2.47;;;2.37;;
13197;SDS011;6664;52.514;13.440;2023-08-24T00:52:14;3.43;;;2.30;;
13197;SDS011;6664;52.514;13.440;2023-08-24T00:55:01;3.77;;;2.40;;
13197;SDS011;6664;52.514;13.440;2023-08-24T00:57:47;2.67;;;2.40;;
13197;SDS011;6664;52.514;13.440;2023-08-24T01:00:36;2.60;;;2.40;;
13197;SDS011;6664;52.514;13.440;2023-08-24T01:03:25;3.83;;;2.77;;
13197;SDS011;6664;52.514;13.440;2023-08-24T01:06:10;3.57;;;2.73;;
13197;SDS011;6664;52.514;13.440;2023-08-24T01:08:56;3.07;;;2.80;;
13197;SDS011;6664;52.514;13.440;2023-08-24T01:15:46;3.30;;;2.70;;
13197;SDS011;6664;52.514;13.440;2023-08-24T01:18:31;3.27;;;2.50;;
13197;SDS011;6664;52.514;13.440;2023-08-24T01:21:18;4.47;;;2.43;;
13197;SDS011;6664;52.514;13.440;2023-08-24T01:24:07;2.27;;;2.10;;
13197;SDS011;6664;52.514;13.440;2023-08-24T01:26:53;3.47;;;2.60;;
13197;SDS011;6664;52.514;13.440;2023-08-24T01:29:43;4.03;;;2.63;;
13197;SDS011;6664;52.514;13.440;2023-08-24T01:32:31;2.47;;;2.33;;
13197;SDS011;6664;52.514;13.440;2023-08-24T01:35:18;3.30;;;2.87;;
13197;SDS011;6664;52.514;13.440;2023-08-24T01:38:07;7.20;;;2.80;;
13197;SDS011;6664;52.514;13.440;2023-08-24T01:44:08;5.83;;;2.50;;
13197;SDS011;6664;52.514;13.440;2023-08-24T01:46:58;6.70;;;3.00;;
13197;SDS011;6664;52.514;13.440;2023-08-24T01:49:47;2.73;;;2.43;;
13197;SDS011;6664;52.514;13.440;2023-08-24T01:52:33;2.97;;;2.77;;
13197;SDS011;6664;52.514;13.440;2023-08-24T01:55:20;2.20;;;2.00;;
13197;SDS011;6664;52.514;13.440;2023-08-24T01:58:08;10.30;;;3.00;;
13197;SDS011;6664;52.514;13.440;2023-08-24T02:00:54;3.53;;;2.03;;
13197;SDS011;6664;52.514;13.440;2023-08-24T02:03:39;4.67;;;3.00;;
13197;SDS011;6664;52.514;13.440;2023-08-24T02:06:25;3.63;;;2.50;;
13197;SDS011;6664;52.514;13.440;2023-08-24T02:09:11;3.90;;;2.60;;
13197;SDS011;6664;52.514;13.440;2023-08-24T02:11:57;2.80;;;2.60;;
13197;SDS011;6664;52.514;13.440;2023-08-24T02:14:42;5.80;;;2.80;;
13197;SDS011;6664;52.514;13.440;2023-08-24T02:17:30;4.67;;;3.07;;
13197;SDS011;6664;52.514;13.440;2023-08-24T02:20:18;4.23;;;3.40;;
13197;SDS011;6664;52.514;13.440;2023-08-24T02:23:04;3.63;;;2.80;;
13197;SDS011;6664;52.514;13.440;2023-08-24T02:25:50;2.90;;;2.60;;
13197;SDS011;6664;52.514;13.440;2023-08-24T02:28:38;6.23;;;3.37;;
13197;SDS011;6664;52.514;13.440;2023-08-24T02:31:24;6.33;;;3.67;;
13197;SDS011;6664;52.514;13.440;2023-08-24T02:34:09;6.17;;;3.23;;
13197;SDS011;6664;52.514;13.440;2023-08-24T02:36:56;4.30;;;3.20;;
13197;SDS011;6664;52.514;13.440;2023-08-24T02:39:42;3.43;;;3.13;;
13197;SDS011;6664;52.514;13.440;2023-08-24T02:42:30;4.03;;;2.90;;
13197;SDS011;6664;52.514;13.440;2023-08-24T02:45:16;3.60;;;3.20;;
13197;SDS011;6664;52.514;13.440;2023-08-24T02:48:02;4.30;;;3.37;;
13197;SDS011;6664;52.514;13.440;2023-08-24T02:50:48;5.23;;;3.53;;
13197;SDS011;6664;52.514;13.440;2023-08-24T02:53:33;3.67;;;3.10;;
13197;SDS011;6664;52.514;13.440;2023-08-24T02:56:19;3.73;;;3.03;;
13197;SDS011;6664;52.514;13.440;2023-08-24T02:59:05;5.27;;;3.73;;
13197;SDS011;6664;52.514;13.440;2023-08-24T03:01:51;5.50;;;3.37;;
13197;SDS011;6664;52.514;13.440;2023-08-24T03:04:37;3.37;;;3.03;;
13197;SDS011;6664;52.514;13.440;2023-08-24T03:07:23;2.77;;;2.57;;
13197;SDS011;6664;52.514;13.440;2023-08-24T03:10:09;8.40;;;3.10;;
13197;SDS011;6664;52.514;13.440;2023-08-24T03:12:59;4.60;;;3.40;;
13197;SDS011;6664;52.514;13.440;2023-08-24T03:15:44;7.97;;;2.90;;
13197;SDS011;6664;52.514;13.440;2023-08-24T03:18:30;3.80;;;3.00;;
13197;SDS011;6664;52.514;13.440;2023-08-24T03:21:15;4.00;;;2.77;;
13197;SDS011;6664;52.514;13.440;2023-08-24T03:24:01;6.53;;;3.30;;
13197;SDS011;6664;52.514;13.440;2023-08-24T03:26:49;4.47;;;2.87;;
13197;SDS011;6664;52.514;13.440;2023-08-24T03:29:34;7.17;;;3.20;;
13197;SDS011;6664;52.514;13.440;2023-08-24T03:32:19;3.00;;;2.70;;
13197;SDS011;6664;52.514;13.440;2023-08-24T03:35:05;3.37;;;3.03;;
13197;SDS011;6664;52.514;13.440;2023-08-24T03:37:53;3.40;;;3.10;;
13197;SDS011;6664;52.514;13.440;2023-08-24T03:40:39;2.97;;;2.67;;
13197;SDS011;6664;52.514;13.440;2023-08-24T03:43:25;4.47;;;2.60;;
13197;SDS011;6664;52.514;13.440;2023-08-24T03:46:10;8.30;;;2.97;;
13197;SDS011;6664;52.514;13.440;2023-08-24T03:48:56;3.10;;;2.87;;
13197;SDS011;6664;52.514;13.440;2023-08-24T03:51:42;3.30;;;3.00;;
13197;SDS011;6664;52.514;13.440;2023-08-24T03:54:27;7.67;;;2.70;;
13197;SDS011;6664;52.514;13.440;2023-08-24T03:57:13;2.63;;;2.47;;
13197;SDS011;6664;52.514;13.440;2023-08-24T03:59:59;4.47;;;3.30;;
13197;SDS011;6664;52.514;13.440;2023-08-24T04:02:44;2.90;;;2.23;;
13197;SDS011;6664;52.514;13.440;2023-08-24T04:05:30;5.23;;;2.57;;
13197;SDS011;6664;52.514;13.440;2023-08-24T04:08:16;3.37;;;3.07;;
13197;SDS011;6664;52.514;13.440;2023-08-24T04:11:02;3.90;;;2.60;;
13197;SDS011;6664;52.514;13.440;2023-08-24T04:13:48;2.63;;;2.40;;
13197;SDS011;6664;52.514;13.440;2023-08-24T04:16:36;3.00;;;2.20;;
13197;SDS011;6664;52.514;13.440;2023-08-24T04:19:24;3.47;;;2.10;;
13197;SDS011;6664;52.514;13.440;2023-08-24T04:22:09;2.87;;;2.43;;
13197;SDS011;6664;52.514;13.440;2023-08-24T04:24:55;4.80;;;2.73;;
13197;SDS011;6664;52.514;13.440;2023-08-24T04:27:41;2.90;;;2.67;;
13197;SDS011;6664;52.514;13.440;2023-08-24T04:30:29;2.43;;;2.20;;
13197;SDS011;6664;52.514;13.440;2023-08-24T04:33:14;2.40;;;2.20;;
13197;SDS011;6664;52.514;13.440;2023-08-24T04:36:01;2.47;;;2.27;;
13197;SDS011;6664;52.514;13.440;2023-08-24T04:38:49;4.67;;;2.60;;
13197;SDS011;6664;52.514;13.440;2023-08-24T04:41:35;4.27;;;2.00;;
13197;SDS011;6664;52.514;13.440;2023-08-24T04:44:21;2.10;;;1.90;;
13197;SDS011;6664;52.514;13.440;2023-08-24T04:47:07;3.40;;;2.40;;
13197;SDS011;6664;52.514;13.440;2023-08-24T04:49:55;2.13;;;2.03;;
13197;SDS011;6664;52.514;13.440;2023-08-24T04:52:41;3.20;;;2.07;;
13197;SDS011;6664;52.514;13.440;2023-08-24T04:55:29;2.90;;;2.17;;
13197;SDS011;6664;52.514;13.440;2023-08-24T04:58:14;2.73;;;2.53;;
13197;SDS011;6664;52.514;13.440;2023-08-24T05:01:00;2.60;;;2.40;;
13197;SDS011;6664;52.514;13.440;2023-08-24T05:03:45;2.50;;;2.20;;
13197;SDS011;6664;52.514;13.440;2023-08-24T05:06:30;4.00;;;2.40;;
13197;SDS011;6664;52.514;13.440;2023-08-24T05:09:16;5.90;;;2.10;;
13197;SDS011;6664;52.514;13.440;2023-08-24T05:12:05;2.50;;;2.40;;
13197;SDS011;6664;52.514;13.440;2023-08-24T05:14:51;2.43;;;2.23;;
13197;SDS011;6664;52.514;13.440;2023-08-24T05:17:40;3.17;;;2.57;;
13197;SDS011;6664;52.514;13.440;2023-08-24T05:20:26;2.67;;;2.47;;
13197;SDS011;6664;52.514;13.440;2023-08-24T05:23:11;3.80;;;1.90;;
13197;SDS011;6664;52.514;13.440;2023-08-24T05:25:57;3.37;;;2.27;;
13197;SDS011;6664;52.514;13.440;2023-08-24T05:28:43;3.13;;;2.50;;
13197;SDS011;6664;52.514;13.440;2023-08-24T05:31:29;10.13;;;2.30;;
13197;SDS011;6664;52.514;13.440;2023-08-24T05:34:17;4.97;;;2.10;;
13197;SDS011;6664;52.514;13.440;2023-08-24T05:37:02;3.93;;;2.30;;
13197;SDS011;6664;52.514;13.440;2023-08-24T05:39:48;4.73;;;2.03;;
13197;SDS011;6664;52.514;13.440;2023-08-24T05:42:33;4.07;;;2.40;;
13197;SDS011;6664;52.514;13.440;2023-08-24T05:45:21;4.00;;;2.33;;
13197;SDS011;6664;52.514;13.440;2023-08-24T05:48:10;4.77;;;2.33;;
13197;SDS011;6664;52.514;13.440;2023-08-24T05:50:56;3.33;;;2.23;;
13197;SDS011;6664;52.514;13.440;2023-08-24T05:53:44;6.60;;;2.73;;
13197;SDS011;6664;52.514;13.440;2023-08-24T05:56:30;3.30;;;2.40;;
13197;SDS011;6664;52.514;13.440;2023-08-24T05:59:16;3.40;;;2.33;;
13197;SDS011;6664;52.514;13.440;2023-08-24T06:02:02;2.53;;;2.33;;
13197;SDS011;6664;52.514;13.440;2023-08-24T06:04:48;2.33;;;2.17;;
13197;SDS011;6664;52.514;13.440;2023-08-24T06:07:35;2.73;;;2.17;;
13197;SDS011;6664;52.514;13.440;2023-08-24T06:10:21;2.10;;;1.90;;
13197;SDS011;6664;52.514;13.440;2023-08-24T06:13:06;2.70;;;2.50;;
13197;SDS011;6664;52.514;13.440;2023-08-24T06:15:55;4.23;;;2.37;;
13197;SDS011;6664;52.514;13.440;2023-08-24T06:18:40;2.70;;;2.50;;
13197;SDS011;6664;52.514;13.440;2023-08-24T06:21:26;3.67;;;2.30;;
13197;SDS011;6664;52.514;13.440;2023-08-24T06:24:12;3.23;;;2.23;;
13197;SDS011;6664;52.514;13.440;2023-08-24T06:27:02;2.60;;;2.40;;
13197;SDS011;6664;52.514;13.440;2023-08-24T06:29:47;2.53;;;2.17;;
13197;SDS011;6664;52.514;13.440;2023-08-24T06:32:33;4.40;;;1.80;;
13197;SDS011;6664;52.514;13.440;2023-08-24T06:35:18;6.77;;;2.20;;
13197;SDS011;6664;52.514;13.440;2023-08-24T06:38:04;3.33;;;2.23;;
13197;SDS011;6664;52.514;13.440;2023-08-24T06:40:52;3.23;;;2.67;;
13197;SDS011;6664;52.514;13.440;2023-08-24T06:43:39;2.23;;;2.03;;
13197;SDS011;6664;52.514;13.440;2023-08-24T06:46:25;1.97;;;1.87;;
13197;SDS011;6664;52.514;13.440;2023-08-24T06:49:10;2.63;;;1.90;;
13197;SDS011;6664;52.514;13.440;2023-08-24T06:51:56;3.33;;;1.97;;
13197;SDS011;6664;52.514;13.440;2023-08-24T06:54:42;2.10;;;2.00;;
13197;SDS011;6664;52.514;13.440;2023-08-24T06:57:30;2.60;;;1.80;;
13197;SDS011;6664;52.514;13.440;2023-08-24T07:00:16;3.00;;;2.00;;
13197;SDS011;6664;52.514;13.440;2023-08-24T07:03:09;2.30;;;2.10;;
13197;SDS011;6664;52.514;13.440;2023-08-24T07:05:55;1.83;;;1.70;;
13197;SDS011;6664;52.514;13.440;2023-08-24T07:08:40;2.23;;;1.73;;
13197;SDS011;6664;52.514;13.440;2023-08-24T07:11:26;2.30;;;2.10;;
13197;SDS011;6664;52.514;13.440;2023-08-24T07:14:14;6.00;;;2.70;;
13197;SDS011;6664;52.514;13.440;2023-08-24T07:16:59;2.30;;;2.10;;
13197;SDS011;6664;52.514;13.440;2023-08-24T07:19:45;3.03;;;1.90;;
13197;SDS011;6664;52.514;13.440;2023-08-24T07:22:32;8.53;;;2.70;;
13197;SDS011;6664;52.514;13.440;2023-08-24T07:25:20;5.57;;;2.40;;
13197;SDS011;6664;52.514;13.440;2023-08-24T07:28:06;2.73;;;2.17;;
13197;SDS011;6664;52.514;13.440;2023-08-24T07:30:53;2.40;;;2.20;;
13197;SDS011;6664;52.514;13.440;2023-08-24T07:33:41;3.47;;;2.30;;
13197;SDS011;6664;52.514;13.440;2023-08-24T07:36:29;2.10;;;2.00;;
13197;SDS011;6664;52.514;13.440;2023-08-24T07:39:15;9.00;;;1.93;;
13197;SDS011;6664;52.514;13.440;2023-08-24T07:42:03;4.90;;;2.30;;
13197;SDS011;6664;52.514;13.440;2023-08-24T07:44:49;7.53;;;2.53;;
13197;SDS011;6664;52.514;13.440;2023-08-24T07:47:37;4.90;;;2.10;;
13197;SDS011;6664;52.514;13.440;2023-08-24T07:50:23;2.13;;;1.63;;
13197;SDS011;6664;52.514;13.440;2023-08-24T07:53:09;5.57;;;2.30;;
13197;SDS011;6664;52.514;13.440;2023-08-24T07:55:54;3.27;;;2.20;;
13197;SDS011;6664;52.514;13.440;2023-08-24T07:58:43;4.63;;;2.10;;
13197;SDS011;6664;52.514;13.440;2023-08-24T08:01:28;5.50;;;2.13;;
13197;SDS011;6664;52.514;13.440;2023-08-24T08:04:14;3.90;;;2.20;;
13197;SDS011;6664;52.514;13.440;2023-08-24T08:06:59;2.90;;;2.10;;
13197;SDS011;6664;52.514;13.440;2023-08-24T08:09:45;5.93;;;1.93;;
13197;SDS011;6664;52.514;13.440;2023-08-24T08:12:30;6.30;;;2.10;;
13197;SDS011;6664;52.514;13.440;2023-08-24T08:15:19;1.87;;;1.77;;
13197;SDS011;6664;52.514;13.440;2023-08-24T08:18:07;1.93;;;1.83;;
13197;SDS011;6664;52.514;13.440;2023-08-24T08:20:56;3.73;;;2.00;;
13197;SDS011;6664;52.514;13.440;2023-08-24T08:23:43;2.30;;;2.07;;
13197;SDS011;6664;52.514;13.440;2023-08-24T08:26:32;3.00;;;2.00;;
13197;SDS011;6664;52.514;13.440;2023-08-24T08:29:20;5.90;;;1.90;;
13197;SDS011;6664;52.514;13.440;2023-08-24T08:32:06;1.77;;;1.67;;
13197;SDS011;6664;52.514;13.440;2023-08-24T08:34:53;4.33;;;2.23;;
13197;SDS011;6664;52.514;13.440;2023-08-24T08:37:42;1.53;;;1.43;;
13197;SDS011;6664;52.514;13.440;2023-08-24T08:40:33;3.67;;;2.00;;
13197;SDS011;6664;52.514;13.440;2023-08-24T08:43:22;2.40;;;2.13;;
13197;SDS011;6664;52.514;13.440;2023-08-24T08:46:08;3.83;;;1.80;;
13197;SDS011;6664;52.514;13.440;2023-08-24T08:49:00;4.53;;;1.97;;
13197;SDS011;6664;52.514;13.440;2023-08-24T08:51:45;3.00;;;1.90;;
13197;SDS011;6664;52.514;13.440;2023-08-24T08:54:31;4.53;;;1.90;;
13197;SDS011;6664;52.514;13.440;2023-08-24T08:57:21;4.00;;;2.17;;
13197;SDS011;6664;52.514;13.440;2023-08-24T09:00:11;2.63;;;1.73;;
13197;SDS011;6664;52.514;13.440;2023-08-24T09:02:59;1.63;;;1.53;;
13197;SDS011;6664;52.514;13.440;2023-08-24T09:05:46;3.80;;;2.20;;
13197;SDS011;6664;52.514;13.440;2023-08-24T09:08:34;4.40;;;1.87;;
13197;SDS011;6664;52.514;13.440;2023-08-24T09:11:21;2.53;;;2.10;;
13197;SDS011;6664;52.514;13.440;2023-08-24T09:14:08;3.43;;;2.00;;
13197;SDS011;6664;52.514;13.440;2023-08-24T09:16:54;4.13;;;2.40;;
13197;SDS011;6664;52.514;13.440;2023-08-24T09:19:40;2.27;;;2.00;;
13197;SDS011;6664;52.514;13.440;2023-08-24T09:22:26;9.30;;;2.03;;
13197;SDS011;6664;52.514;13.440;2023-08-24T09:25:11;3.00;;;1.67;;
13197;SDS011;6664;52.514;13.440;2023-08-24T09:28:00;3.20;;;1.70;;
13197;SDS011;6664;52.514;13.440;2023-08-24T09:30:55;3.90;;;1.40;;
13197;SDS011;6664;52.514;13.440;2023-08-24T09:33:42;2.03;;;1.70;;
13197;SDS011;6664;52.514;13.440;2023-08-24T09:36:33;4.53;;;2.43;;
13197;SDS011;6664;52.514;13.440;2023-08-24T09:39:19;4.83;;;1.77;;
13197;SDS011;6664;52.514;13.440;2023-08-24T09:42:05;1.67;;;1.57;;
13197;SDS011;6664;52.514;13.440;2023-08-24T09:44:51;1.90;;;1.57;;
13197;SDS011;6664;52.514;13.440;2023-08-24T09:47:38;2.60;;;1.83;;
13197;SDS011;6664;52.514;13.440;2023-08-24T09:50:25;2.50;;;2.00;;
13197;SDS011;6664;52.514;13.440;2023-08-24T09:53:17;3.57;;;1.80;;
13197;SDS011;6664;52.514;13.440;2023-08-24T09:56:03;3.07;;;1.40;;
13197;SDS011;6664;52.514;13.440;2023-08-24T09:58:51;1.93;;;1.77;;
13197;SDS011;6664;52.514;13.440;2023-08-24T10:01:43;1.63;;;1.43;;
13197;SDS011;6664;52.514;13.440;2023-08-24T10:04:32;1.90;;;1.80;;
13197;SDS011;6664;52.514;13.440;2023-08-24T10:07:24;3.77;;;1.77;;
13197;SDS011;6664;52.514;13.440;2023-08-24T10:10:11;2.33;;;1.87;;
13197;SDS011;6664;52.514;13.440;2023-08-24T10:12:59;2.00;;;1.50;;
13197;SDS011;6664;52.514;13.440;2023-08-24T10:15:55;2.80;;;1.47;;
13197;SDS011;6664;52.514;13.440;2023-08-24T10:18:41;6.83;;;1.87;;
13197;SDS011;6664;52.514;13.440;2023-08-24T10:21:28;2.20;;;1.70;;
13197;SDS011;6664;52.514;13.440;2023-08-24T10:24:13;1.80;;;1.70;;
13197;SDS011;6664;52.514;13.440;2023-08-24T10:27:01;1.63;;;1.53;;
13197;SDS011;6664;52.514;13.440;2023-08-24T10:29:48;1.70;;;1.43;;
13197;SDS011;6664;52.514;13.440;2023-08-24T10:32:34;1.73;;;1.63;;
13197;SDS011;6664;52.514;13.440;2023-08-24T10:35:21;1.50;;;1.40;;
13197;SDS011;6664;52.514;13.440;2023-08-24T10:38:07;4.87;;;1.50;;
13197;SDS011;6664;52.514;13.440;2023-08-24T10:40:53;3.23;;;1.67;;
13197;SDS011;6664;52.514;13.440;2023-08-24T10:43:40;2.60;;;1.70;;
13197;SDS011;6664;52.514;13.440;2023-08-24T10:46:26;2.80;;;1.70;;
13197;SDS011;6664;52.514;13.440;2023-08-24T10:49:11;2.80;;;1.97;;
13197;SDS011;6664;52.514;13.440;2023-08-24T10:52:20;2.00;;;1.37;;
13197;SDS011;6664;52.514;13.440;2023-08-24T10:55:21;1.80;;;1.70;;
13197;SDS011;6664;52.514;13.440;2023-08-24T10:58:09;2.17;;;1.93;;
13197;SDS011;6664;52.514;13.440;2023-08-24T11:01:02;4.70;;;1.70;;
13197;SDS011;6664;52.514;13.440;2023-08-24T11:03:50;1.77;;;1.47;;
13197;SDS011;6664;52.514;13.440;2023-08-24T11:06:58;2.10;;;1.60;;
13197;SDS011;6664;52.514;13.440;2023-08-24T11:09:47;4.50;;;1.67;;
13197;SDS011;6664;52.514;13.440;2023-08-24T11:15:51;3.10;;;2.13;;
13197;SDS011;6664;52.514;13.440;2023-08-24T11:18:42;2.90;;;1.67;;
13197;SDS011;6664;52.514;13.440;2023-08-24T11:21:27;4.13;;;1.80;;
13197;SDS011;6664;52.514;13.440;2023-08-24T11:24:14;6.43;;;2.30;;
13197;SDS011;6664;52.514;13.440;2023-08-24T11:27:00;2.67;;;2.07;;
13197;SDS011;6664;52.514;13.440;2023-08-24T11:29:57;3.37;;;1.80;;
13197;SDS011;6664;52.514;13.440;2023-08-24T11:32:44;2.07;;;1.90;;
13197;SDS011;6664;52.514;13.440;2023-08-24T11:35:41;2.20;;;2.10;;
13197;SDS011;6664;52.514;13.440;2023-08-24T11:38:39;5.53;;;2.10;;
13197;SDS011;6664;52.514;13.440;2023-08-24T11:41:25;2.60;;;2.20;;
13197;SDS011;6664;52.514;13.440;2023-08-24T11:44:13;1.60;;;1.50;;
13197;SDS011;6664;52.514;13.440;2023-08-24T11:47:13;2.20;;;2.10;;
13197;SDS011;6664;52.514;13.440;2023-08-24T11:49:58;3.03;;;2.33;;
13197;SDS011;6664;52.514;13.440;2023-08-24T11:52:47;6.40;;;2.10;;
13197;SDS011;6664;52.514;13.440;2023-08-24T11:55:33;2.37;;;2.13;;
13197;SDS011;6664;52.514;13.440;2023-08-24T11:58:18;2.50;;;1.73;;
13197;SDS011;6664;52.514;13.440;2023-08-24T12:01:10;2.63;;;1.83;;
13197;SDS011;6664;52.514;13.440;2023-08-24T12:03:58;3.83;;;1.77;;
13197;SDS011;6664;52.514;13.440;2023-08-24T12:06:44;2.83;;;1.63;;
13197;SDS011;6664;52.514;13.440;2023-08-24T12:09:34;1.80;;;1.70;;
13197;SDS011;6664;52.514;13.440;2023-08-24T12:12:22;3.57;;;2.30;;
13197;SDS011;6664;52.514;13.440;2023-08-24T12:15:18;1.83;;;1.73;;
13197;SDS011;6664;52.514;13.440;2023-08-24T12:18:13;2.30;;;1.50;;
13197;SDS011;6664;52.514;13.440;2023-08-24T12:21:00;2.60;;;2.00;;
13197;SDS011;6664;52.514;13.440;2023-08-24T12:24:03;1.87;;;1.77;;
13197;SDS011;6664;52.514;13.440;2023-08-24T12:26:57;5.67;;;2.00;;
13197;SDS011;6664;52.514;13.440;2023-08-24T12:29:45;1.63;;;1.53;;
13197;SDS011;6664;52.514;13.440;2023-08-24T12:32:44;1.47;;;1.40;;
13197;SDS011;6664;52.514;13.440;2023-08-24T12:35:31;3.17;;;1.60;;
13197;SDS011;6664;52.514;13.440;2023-08-24T12:38:16;2.50;;;1.57;;
13197;SDS011;6664;52.514;13.440;2023-08-24T12:41:02;1.67;;;1.57;;
13197;SDS011;6664;52.514;13.440;2023-08-24T12:43:48;1.90;;;1.50;;
13197;SDS011;6664;52.514;13.440;2023-08-24T12:46:34;4.67;;;1.20;;
13197;SDS011;6664;52.514;13.440;2023-08-24T12:49:20;2.03;;;1.60;;
13197;SDS011;6664;52.514;13.440;2023-08-24T12:52:06;1.87;;;1.30;;
13197;SDS011;6664;52.514;13.440;2023-08-24T12:54:52;1.40;;;1.30;;
13197;SDS011;6664;52.514;13.440;2023-08-24T12:57:38;1.50;;;1.00;;
13197;SDS011;6664;52.514;13.440;2023-08-24T13:00:25;1.35;;;1.25;;
13197;SDS011;6664;52.514;13.440;2023-08-24T13:03:12;1.38;;;1.27;;
13197;SDS011;6664;52.514;13.440;2023-08-24T13:05:58;7.82;;;2.17;;
13197;SDS011;6664;52.514;13.440;2023-08-24T13:09:04;1.05;;;0.95;;
13197;SDS011;6664;52.514;13.440;2023-08-24T13:11:51;1.55;;;1.10;;
13197;SDS011;6664;52.514;13.440;2023-08-24T13:14:36;0.98;;;0.98;;
13197;SDS011;6664;52.514;13.440;2023-08-24T13:17:22;1.45;;;1.10;;
13197;SDS011;6664;52.514;13.440;2023-08-24T13:20:08;2.05;;;0.80;;
13197;SDS011;6664;52.514;13.440;2023-08-24T13:22:54;1.00;;;0.85;;
13197;SDS011;6664;52.514;13.440;2023-08-24T13:25:41;1.10;;;1.10;;
13197;SDS011;6664;52.514;13.440;2023-08-24T13:28:27;1.58;;;0.80;;
13197;SDS011;6664;52.514;13.440;2023-08-24T13:31:15;1.58;;;0.80;;
13197;SDS011;6664;52.514;13.440;2023-08-24T13:34:01;1.05;;;0.90;;
13197;SDS011;6664;52.514;13.440;2023-08-24T13:36:49;3.15;;;0.80;;
13197;SDS011;6664;52.514;13.440;2023-08-24T13:39:35;0.82;;;0.82;;
13197;SDS011;6664;52.514;13.440;2023-08-24T13:42:20;0.80;;;0.80;;
13197;SDS011;6664;52.514;13.440;2023-08-24T13:45:06;2.67;;;1.00;;
13197;SDS011;6664;52.514;13.440;2023-08-24T13:47:53;0.93;;;0.90;;
13197;SDS011;6664;52.514;13.440;2023-08-24T13:50:41;1.00;;;1.00;;
13197;SDS011;6664;52.514;13.440;2023-08-24T13:53:27;1.33;;;0.82;;
13197;SDS011;6664;52.514;13.440;2023-08-24T13:56:16;0.70;;;0.70;;
13197;SDS011;6664;52.514;13.440;2023-08-24T13:59:01;0.70;;;0.70;;
13197;SDS011;6664;52.514;13.440;2023-08-24T14:01:48;1.10;;;1.00;;
13197;SDS011;6664;52.514;13.440;2023-08-24T14:04:34;1.00;;;1.00;;
13197;SDS011;6664;52.514;13.440;2023-08-24T14:07:19;1.30;;;0.90;;
13197;SDS011;6664;52.514;13.440;2023-08-24T14:10:06;1.08;;;0.93;;
13197;SDS011;6664;52.514;13.440;2023-08-24T14:12:53;0.95;;;0.95;;
13197;SDS011;6664;52.514;13.440;2023-08-24T14:15:39;1.52;;;0.90;;
13197;SDS011;6664;52.514;13.440;2023-08-24T14:18:24;0.77;;;0.63;;
13197;SDS011;6664;52.514;13.440;2023-08-24T14:21:10;2.05;;;0.90;;
13197;SDS011;6664;52.514;13.440;2023-08-24T14:23:59;0.90;;;0.90;;
13197;SDS011;6664;52.514;13.440;2023-08-24T14:26:45;1.38;;;1.20;;
13197;SDS011;6664;52.514;13.440;2023-08-24T14:29:31;1.00;;;1.00;;
13197;SDS011;6664;52.514;13.440;2023-08-24T14:32:16;0.90;;;0.90;;
13197;SDS011;6664;52.514;13.440;2023-08-24T14:35:02;0.90;;;0.90;;
13197;SDS011;6664;52.514;13.440;2023-08-24T14:37:49;2.00;;;1.00;;
13197;SDS011;6664;52.514;13.440;2023-08-24T14:40:37;1.30;;;1.20;;
13197;SDS011;6664;52.514;13.440;2023-08-24T14:43:22;3.15;;;0.90;;
13197;SDS011;6664;52.514;13.440;2023-08-24T14:46:08;1.08;;;1.08;;
13197;SDS011;6664;52.514;13.440;2023-08-24T14:48:54;1.48;;;1.38;;
13197;SDS011;6664;52.514;13.440;2023-08-24T14:51:40;1.30;;;1.20;;
13197;SDS011;6664;52.514;13.440;2023-08-24T14:54:27;1.70;;;1.20;;
13197;SDS011;6664;52.514;13.440;2023-08-24T14:57:13;2.05;;;1.30;;
13197;SDS011;6664;52.514;13.440;2023-08-24T15:00:00;2.35;;;1.58;;
13197;SDS011;6664;52.514;13.440;2023-08-24T15:02:50;3.58;;;1.67;;
13197;SDS011;6664;52.514;13.440;2023-08-24T15:05:40;1.13;;;1.08;;
13197;SDS011;6664;52.514;13.440;2023-08-24T15:08:41;2.40;;;1.67;;
13197;SDS011;6664;52.514;13.440;2023-08-24T15:11:29;1.03;;;1.03;;
13197;SDS011;6664;52.514;13.440;2023-08-24T15:14:14;1.93;;;1.73;;
13197;SDS011;6664;52.514;13.440;2023-08-24T15:17:02;1.60;;;1.50;;
13197;SDS011;6664;52.514;13.440;2023-08-24T15:19:50;2.33;;;1.57;;
13197;SDS011;6664;52.514;13.440;2023-08-24T15:22:36;1.70;;;1.60;;
13197;SDS011;6664;52.514;13.440;2023-08-24T15:25:21;1.70;;;1.60;;
13197;SDS011;6664;52.514;13.440;2023-08-24T15:28:09;1.60;;;1.50;;
13197;SDS011;6664;52.514;13.440;2023-08-24T15:30:55;2.00;;;1.67;;
13197;SDS011;6664;52.514;13.440;2023-08-24T15:33:43;1.93;;;1.60;;
13197;SDS011;6664;52.514;13.440;2023-08-24T15:36:31;6.83;;;2.10;;
13197;SDS011;6664;52.514;13.440;2023-08-24T15:39:17;1.77;;;1.60;;
13197;SDS011;6664;52.514;13.440;2023-08-24T15:42:05;5.27;;;1.73;;
13197;SDS011;6664;52.514;13.440;2023-08-24T15:44:52;2.70;;;1.80;;
13197;SDS011;6664;52.514;13.440;2023-08-24T15:47:38;1.57;;;1.47;;
13197;SDS011;6664;52.514;13.440;2023-08-24T15:50:26;4.73;;;1.80;;
13197;SDS011;6664;52.514;13.440;2023-08-24T15:53:13;1.73;;;1.40;;
13197;SDS011;6664;52.514;13.440;2023-08-24T15:56:00;2.93;;;1.40;;
13197;SDS011;6664;52.514;13.440;2023-08-24T15:58:46;1.80;;;1.70;;
13197;SDS011;6664;52.514;13.440;2023-08-24T16:01:32;2.83;;;1.80;;
13197;SDS011;6664;52.514;13.440;2023-08-24T16:04:18;3.63;;;1.93;;
13197;SDS011;6664;52.514;13.440;2023-08-24T16:07:06;2.53;;;2.33;;
13197;SDS011;6664;52.514;13.440;2023-08-24T16:09:52;2.57;;;2.00;;
13197;SDS011;6664;52.514;13.440;2023-08-24T16:12:37;2.13;;;1.47;;
13197;SDS011;6664;52.514;13.440;2023-08-24T16:15:23;2.43;;;1.93;;
13197;SDS011;6664;52.514;13.440;2023-08-24T16:18:08;4.00;;;1.60;;
13197;SDS011;6664;52.514;13.440;2023-08-24T16:20:56;4.80;;;1.70;;
13197;SDS011;6664;52.514;13.440;2023-08-24T16:23:42;2.10;;;1.50;;
13197;SDS011;6664;52.514;13.440;2023-08-24T16:26:28;2.60;;;2.07;;
13197;SDS011;6664;52.514;13.440;2023-08-24T16:29:16;1.80;;;1.70;;
13197;SDS011;6664;52.514;13.440;2023-08-24T16:32:01;3.80;;;2.27;;
13197;SDS011;6664;52.514;13.440;2023-08-24T16:34:47;6.00;;;2.30;;
13197;SDS011;6664;52.514;13.440;2023-08-24T16:37:32;1.83;;;1.73;;
13197;SDS011;6664;52.514;13.440;2023-08-24T16:40:17;1.70;;;1.60;;
13197;SDS011;6664;52.514;13.440;2023-08-24T16:43:03;2.03;;;1.63;;
13197;SDS011;6664;52.514;13.440;2023-08-24T16:45:49;1.73;;;1.63;;
13197;SDS011;6664;52.514;13.440;2023-08-24T16:48:34;3.03;;;1.83;;
13197;SDS011;6664;52.514;13.440;2023-08-24T16:51:20;2.10;;;1.90;;
13197;SDS011;6664;52.514;13.440;2023-08-24T16:54:06;6.80;;;2.30;;
13197;SDS011;6664;52.514;13.440;2023-08-24T16:56:52;2.40;;;1.87;;
13197;SDS011;6664;52.514;13.440;2023-08-24T16:59:37;2.47;;;2.20;;